createdAt,value
2023-06-19T00:00:24.733Z,19.05
2023-06-19T00:02:54.004Z,18.91
2023-06-19T00:05:24.866Z,18.91
2023-06-19T00:07:53.273Z,18.90
2023-06-19T00:10:22.347Z,18.93
2023-06-19T00:12:51.077Z,18.89
2023-06-19T00:15:19.962Z,18.83
2023-06-19T00:17:48.606Z,18.73
2023-06-19T00:20:17.163Z,18.69
2023-06-19T00:22:53.041Z,18.81
2023-06-19T00:25:21.949Z,18.76
2023-06-19T00:27:52.984Z,18.83
2023-06-19T00:30:21.850Z,18.75
2023-06-19T00:32:51.680Z,18.75
2023-06-19T00:35:20.392Z,18.58
2023-06-19T00:37:51.305Z,18.62
2023-06-19T00:40:28.911Z,18.72
2023-06-19T00:42:57.934Z,18.59
2023-06-19T00:45:29.487Z,18.43
2023-06-19T00:48:00.762Z,18.64
2023-06-19T00:50:32.606Z,18.61
2023-06-19T00:53:05.945Z,18.62
2023-06-19T00:55:35.866Z,18.60
2023-06-19T00:58:05.202Z,18.74
2023-06-19T01:00:33.870Z,18.66
2023-06-19T01:03:02.561Z,18.67
2023-06-19T01:05:31.376Z,18.56
2023-06-19T01:08:06.539Z,18.52
2023-06-19T01:10:41.036Z,18.44
2023-06-19T01:13:13.827Z,18.45
2023-06-19T01:15:45.257Z,18.53
2023-06-19T01:18:14.707Z,18.38
2023-06-19T01:20:45.228Z,18.21
2023-06-19T01:23:15.319Z,18.22
2023-06-19T01:25:43.888Z,18.05
2023-06-19T01:28:15.035Z,18.24
2023-06-19T01:30:44.683Z,18.08
2023-06-19T01:33:18.848Z,18.24
2023-06-19T01:35:49.445Z,18.22
2023-06-19T01:38:20.742Z,18.16
2023-06-19T01:40:51.064Z,18.17
2023-06-19T01:43:21.032Z,18.11
2023-06-19T01:45:49.972Z,18.21
2023-06-19T01:48:18.502Z,18.10
2023-06-19T01:50:48.357Z,18.08
2023-06-19T01:53:20.556Z,18.15
2023-06-19T01:55:49.153Z,18.28
2023-06-19T01:58:19.474Z,18.17
2023-06-19T02:00:48.430Z,18.11
2023-06-19T02:03:17.109Z,17.99
2023-06-19T02:05:45.853Z,17.98
2023-06-19T02:08:14.401Z,17.77
2023-06-19T02:10:45.760Z,17.68
2023-06-19T02:13:14.465Z,17.69
2023-06-19T02:15:43.035Z,17.76
2023-06-19T02:18:11.673Z,17.93
2023-06-19T02:20:40.421Z,17.99
2023-06-19T02:23:08.978Z,18.06
2023-06-19T02:25:37.391Z,17.90
2023-06-19T02:28:10.519Z,17.89
2023-06-19T02:30:39.233Z,17.94
2023-06-19T02:33:07.790Z,17.83
2023-06-19T02:35:36.365Z,17.89
2023-06-19T02:38:05.881Z,17.97
2023-06-19T02:40:35.079Z,17.73
2023-06-19T02:43:03.605Z,17.77
2023-06-19T02:45:33.716Z,17.80
2023-06-19T02:48:02.342Z,17.93
2023-06-19T02:50:31.022Z,17.92
2023-06-19T02:52:59.629Z,17.97
2023-06-19T02:55:28.394Z,17.87
2023-06-19T02:57:58.860Z,17.72
2023-06-19T03:00:30.030Z,17.68
2023-06-19T03:03:01.221Z,17.74
2023-06-19T03:05:30.017Z,17.67
2023-06-19T03:07:58.767Z,17.72
2023-06-19T03:10:27.750Z,17.70
2023-06-19T03:12:56.571Z,17.77
2023-06-19T03:15:25.262Z,17.94
2023-06-19T03:17:55.142Z,17.83
2023-06-19T03:20:27.507Z,17.83
2023-06-19T03:22:59.452Z,17.97
2023-06-19T03:25:34.932Z,17.81
2023-06-19T03:28:06.921Z,17.68
2023-06-19T03:30:36.890Z,17.66
2023-06-19T03:33:05.683Z,17.87
2023-06-19T03:35:43.395Z,17.90
2023-06-19T03:38:19.595Z,18.04
2023-06-19T03:40:49.332Z,17.96
2023-06-19T03:43:18.389Z,17.71
2023-06-19T03:45:47.681Z,17.72
2023-06-19T03:48:16.349Z,17.76
2023-06-19T03:50:46.453Z,17.88
2023-06-19T03:53:15.328Z,17.89
2023-06-19T03:55:43.928Z,17.92
2023-06-19T03:58:14.146Z,17.83
2023-06-19T04:00:44.283Z,17.82
2023-06-19T04:03:14.215Z,17.78
2023-06-19T04:05:43.544Z,17.88
2023-06-19T04:08:15.790Z,17.89
2023-06-19T04:10:45.889Z,17.93
2023-06-19T04:13:15.004Z,17.97
2023-06-19T04:15:46.963Z,18.03
2023-06-19T04:18:17.189Z,17.99
2023-06-19T04:20:46.055Z,17.91
2023-06-19T04:23:16.860Z,17.92
2023-06-19T04:25:45.423Z,17.95
2023-06-19T04:28:14.043Z,17.86
2023-06-19T04:30:42.663Z,17.93
2023-06-19T04:33:11.437Z,17.91
2023-06-19T04:35:41.579Z,18.03
2023-06-19T04:38:10.831Z,18.18
2023-06-19T04:40:40.928Z,18.19
2023-06-19T04:43:09.543Z,18.13
2023-06-19T04:45:38.168Z,18.37
2023-06-19T04:48:07.257Z,18.18
2023-06-19T04:50:35.963Z,18.15
2023-06-19T04:53:04.711Z,18.10
2023-06-19T04:55:33.393Z,18.23
2023-06-19T04:58:03.726Z,18.16
2023-06-19T05:00:32.261Z,18.24
2023-06-19T05:03:01.797Z,18.22
2023-06-19T05:05:31.034Z,18.34
2023-06-19T05:07:59.628Z,18.45
2023-06-19T05:10:28.289Z,18.72
2023-06-19T05:12:56.825Z,18.85
2023-06-19T05:15:26.977Z,18.95
2023-06-19T05:17:55.786Z,18.82
2023-06-19T05:20:24.748Z,18.76
2023-06-19T05:22:53.669Z,18.91
2023-06-19T05:25:22.495Z,18.75
2023-06-19T05:27:51.160Z,18.81
2023-06-19T05:30:19.921Z,19.07
2023-06-19T05:32:50.048Z,19.07
2023-06-19T05:35:18.892Z,19.22
2023-06-19T05:37:47.869Z,19.22
2023-06-19T05:40:16.552Z,19.29
2023-06-19T05:42:45.196Z,19.33
2023-06-19T05:45:13.993Z,19.49
2023-06-19T05:47:42.795Z,19.53
2023-06-19T05:50:13.239Z,19.73
2023-06-19T05:52:44.473Z,19.86
2023-06-19T05:55:13.685Z,20.02
2023-06-19T05:57:42.336Z,20.18
2023-06-19T06:00:15.456Z,20.03
2023-06-19T06:02:44.108Z,20.43
2023-06-19T06:05:14.379Z,20.44
2023-06-19T06:07:42.877Z,20.39
2023-06-19T06:10:12.173Z,20.55
2023-06-19T06:12:40.810Z,20.71
2023-06-19T06:15:10.263Z,20.77
2023-06-19T06:17:38.995Z,20.92
2023-06-19T06:20:12.641Z,21.08
2023-06-19T06:22:42.918Z,21.12
2023-06-19T06:25:13.849Z,21.07
2023-06-19T06:27:43.373Z,21.28
2023-06-19T06:30:14.115Z,21.62
2023-06-19T06:32:42.944Z,21.73
2023-06-19T06:35:11.832Z,21.68
2023-06-19T06:37:40.894Z,21.94
2023-06-19T06:40:14.467Z,22.03
2023-06-19T06:42:43.197Z,22.09
2023-06-19T06:45:12.415Z,22.08
2023-06-19T06:47:41.447Z,22.10
2023-06-19T06:50:11.683Z,22.19
2023-06-19T06:52:40.392Z,22.36
2023-06-19T06:55:11.450Z,22.47
2023-06-19T06:57:39.777Z,22.50
2023-06-19T07:00:12.721Z,22.60
2023-06-19T07:02:42.540Z,22.66
2023-06-19T07:05:12.253Z,22.67
2023-06-19T07:07:40.942Z,22.73
2023-06-19T07:10:11.902Z,22.80
2023-06-19T07:12:47.831Z,22.91
2023-06-19T07:15:16.716Z,22.89
2023-06-19T07:17:46.612Z,23.00
2023-06-19T07:20:15.407Z,22.99
2023-06-19T07:22:44.808Z,23.14
2023-06-19T07:25:16.353Z,23.18
2023-06-19T07:27:45.703Z,23.40
2023-06-19T07:30:16.866Z,23.51
2023-06-19T07:32:46.285Z,23.63
2023-06-19T07:35:15.101Z,23.73
2023-06-19T07:37:44.009Z,23.82
2023-06-19T07:40:15.105Z,23.82
2023-06-19T07:42:44.826Z,23.91
2023-06-19T07:45:15.189Z,23.94
2023-06-19T07:47:44.265Z,23.87
2023-06-19T07:50:12.946Z,23.85
2023-06-19T07:52:41.619Z,23.91
2023-06-19T07:55:11.084Z,23.76
2023-06-19T07:57:41.302Z,24.07
2023-06-19T08:00:12.940Z,24.11
2023-06-19T08:02:42.056Z,24.07
2023-06-19T08:05:11.906Z,24.20
2023-06-19T08:07:40.713Z,24.21
2023-06-19T08:10:13.963Z,24.27
2023-06-19T08:12:46.649Z,24.22
2023-06-19T08:15:15.873Z,24.19
2023-06-19T08:17:45.127Z,24.11
2023-06-19T08:20:13.983Z,24.20
2023-06-19T08:22:42.609Z,24.13
2023-06-19T08:25:11.797Z,24.26
2023-06-19T08:27:40.607Z,24.36
2023-06-19T08:30:11.426Z,24.35
2023-06-19T08:32:40.138Z,24.33
2023-06-19T08:35:09.307Z,24.32
2023-06-19T08:37:37.936Z,24.21
2023-06-19T08:40:10.714Z,24.04
2023-06-19T08:42:40.399Z,24.08
2023-06-19T08:45:11.931Z,24.24
2023-06-19T08:47:43.138Z,24.28
2023-06-19T08:50:12.304Z,24.35
2023-06-19T08:52:40.807Z,24.31
2023-06-19T08:55:11.747Z,24.31
2023-06-19T08:57:41.746Z,24.35
2023-06-19T09:00:12.506Z,24.36
2023-06-19T09:02:52.502Z,24.40
2023-06-19T09:05:29.581Z,24.37
2023-06-19T09:08:02.104Z,24.52
2023-06-19T09:10:34.128Z,24.63
2023-06-19T09:13:04.175Z,24.64
2023-06-19T09:15:36.616Z,24.66
2023-06-19T09:18:07.015Z,24.78
2023-06-19T09:20:37.416Z,24.86
2023-06-19T09:23:05.696Z,24.87
2023-06-19T09:25:34.206Z,24.98
2023-06-19T09:28:05.124Z,25.31
2023-06-19T09:30:35.196Z,25.42
2023-06-19T09:33:09.580Z,25.44
2023-06-19T09:35:38.343Z,25.64
2023-06-19T09:38:07.750Z,25.74
2023-06-19T09:40:36.986Z,25.70
2023-06-19T09:43:07.344Z,25.59
2023-06-19T09:45:37.295Z,25.50
2023-06-19T09:48:07.525Z,25.58
2023-06-19T09:51:14.785Z,25.63
2023-06-19T09:53:45.569Z,25.66
2023-06-19T09:56:15.127Z,25.61
2023-06-19T09:58:45.604Z,25.72
2023-06-19T10:01:17.646Z,25.66
2023-06-19T10:03:46.353Z,25.77
2023-06-19T10:06:17.824Z,25.85
2023-06-19T10:08:47.833Z,25.75
2023-06-19T10:11:16.705Z,25.55
2023-06-19T10:13:45.643Z,25.82
2023-06-19T10:16:24.073Z,26.27
2023-06-19T10:18:53.323Z,26.39
2023-06-19T10:21:22.708Z,26.33
2023-06-19T10:23:58.841Z,26.49
2023-06-19T10:26:34.884Z,26.43
2023-06-19T10:29:05.681Z,26.37
2023-06-19T10:31:35.669Z,26.84
2023-06-19T10:34:06.037Z,27.11
2023-06-19T10:36:34.704Z,27.22
2023-06-19T10:39:03.595Z,27.32
2023-06-19T10:41:33.244Z,27.61
2023-06-19T10:44:05.335Z,27.75
2023-06-19T10:46:38.035Z,27.80
2023-06-19T10:49:08.707Z,27.95
2023-06-19T10:51:38.513Z,27.90
2023-06-19T10:54:07.540Z,27.94
2023-06-19T10:56:36.768Z,28.11
2023-06-19T10:59:07.875Z,28.35
2023-06-19T11:01:39.571Z,28.29
2023-06-19T11:04:09.726Z,28.26
2023-06-19T11:06:39.065Z,27.82
2023-06-19T11:09:09.431Z,27.91
2023-06-19T11:11:39.740Z,28.04
2023-06-19T11:14:08.777Z,28.33
2023-06-19T11:16:41.486Z,28.32
2023-06-19T11:19:10.847Z,28.36
2023-06-19T11:21:40.509Z,28.56
2023-06-19T11:24:14.688Z,28.57
2023-06-19T11:26:50.676Z,28.69
2023-06-19T11:29:21.751Z,28.59
2023-06-19T11:31:52.450Z,28.47
2023-06-19T11:34:24.492Z,28.66
2023-06-19T11:36:56.113Z,28.24
2023-06-19T11:39:24.789Z,28.07
2023-06-19T11:41:55.060Z,28.13
2023-06-19T11:44:24.385Z,28.41
2023-06-19T11:47:00.161Z,28.38
2023-06-19T11:49:29.591Z,28.47
2023-06-19T11:51:58.588Z,28.41
2023-06-19T11:54:27.494Z,28.59
2023-06-19T11:56:56.072Z,28.51
2023-06-19T11:59:24.687Z,28.33
2023-06-19T12:01:54.706Z,28.09
2023-06-19T12:04:23.564Z,28.22
2023-06-19T12:06:52.330Z,28.03
2023-06-19T12:09:21.026Z,28.17
2023-06-19T12:11:49.552Z,28.32
2023-06-19T12:14:19.431Z,28.06
2023-06-19T12:16:48.489Z,27.86
2023-06-19T12:19:21.305Z,27.86
2023-06-19T12:21:50.176Z,27.80
2023-06-19T12:24:18.676Z,27.64
2023-06-19T12:26:47.274Z,27.52
2023-06-19T12:29:15.865Z,27.54
2023-06-19T12:31:46.328Z,27.51
2023-06-19T12:36:51.406Z,27.24
2023-06-19T12:39:20.925Z,27.45
2023-06-19T12:41:49.484Z,27.52
2023-06-19T12:44:18.524Z,27.59
2023-06-19T12:46:47.187Z,27.56
2023-06-19T12:49:15.871Z,27.40
2023-06-19T12:51:44.379Z,27.36
2023-06-19T12:54:14.461Z,27.32
2023-06-19T12:56:43.166Z,27.38
2023-06-19T12:59:11.749Z,27.40
2023-06-19T13:01:40.368Z,27.35
2023-06-19T13:04:09.046Z,27.23
2023-06-19T13:06:38.961Z,27.28
2023-06-19T13:09:08.683Z,27.32
2023-06-19T13:11:38.903Z,27.08
2023-06-19T13:14:07.553Z,27.11
2023-06-19T13:16:46.125Z,27.44
2023-06-19T13:19:16.522Z,27.28
2023-06-19T13:21:45.796Z,27.34
2023-06-19T13:24:14.520Z,27.18
2023-06-19T13:26:46.160Z,27.17
2023-06-19T13:29:15.018Z,27.07
2023-06-19T13:31:43.754Z,27.07
2023-06-19T13:34:12.330Z,27.16
2023-06-19T13:36:41.234Z,27.15
2023-06-19T13:39:10.234Z,27.10
2023-06-19T13:41:38.922Z,27.13
2023-06-19T13:44:09.208Z,27.09
2023-06-19T13:46:37.479Z,27.17
2023-06-19T13:49:06.127Z,27.03
2023-06-19T13:51:35.176Z,27.10
2023-06-19T13:54:04.595Z,26.85
2023-06-19T13:56:33.631Z,26.61
2023-06-19T13:59:02.323Z,26.55
2023-06-19T14:01:33.186Z,26.65
2023-06-19T14:04:01.992Z,26.56
2023-06-19T14:06:31.671Z,26.56
2023-06-19T14:09:00.304Z,26.52
2023-06-19T14:11:30.400Z,26.39
2023-06-19T14:13:59.120Z,26.43
2023-06-19T14:16:27.774Z,26.39
2023-06-19T14:18:57.954Z,26.63
2023-06-19T14:21:27.074Z,26.54
2023-06-19T14:23:55.686Z,26.68
2023-06-19T14:26:24.422Z,26.72
2023-06-19T14:28:56.697Z,26.53
2023-06-19T14:31:25.819Z,26.66
2023-06-19T14:33:54.462Z,26.88
2023-06-19T14:36:24.633Z,26.71
2023-06-19T14:38:53.126Z,26.79
2023-06-19T14:41:21.848Z,26.96
2023-06-19T14:43:50.424Z,27.03
2023-06-19T14:46:33.718Z,27.22
2023-06-19T14:49:06.747Z,27.03
2023-06-19T14:51:36.855Z,27.03
2023-06-19T14:54:05.613Z,27.00
2023-06-19T14:56:34.483Z,26.90
2023-06-19T14:59:03.061Z,26.99
2023-06-19T15:01:31.792Z,26.69
2023-06-19T15:04:00.598Z,26.86
2023-06-19T15:06:29.212Z,26.76
2023-06-19T15:09:01.245Z,26.88
2023-06-19T15:11:31.649Z,26.85
2023-06-19T15:14:00.257Z,26.81
2023-06-19T15:16:28.968Z,26.63
2023-06-19T15:18:57.548Z,26.58
2023-06-19T15:21:26.328Z,26.70
2023-06-19T15:23:57.300Z,26.66
2023-06-19T15:26:27.532Z,26.50
2023-06-19T15:28:56.160Z,26.56
2023-06-19T15:31:25.753Z,26.45
2023-06-19T15:33:57.372Z,26.32
2023-06-19T15:36:25.991Z,26.40
2023-06-19T15:38:54.612Z,26.51
2023-06-19T15:41:23.300Z,26.38
2023-06-19T15:43:53.345Z,25.96
2023-06-19T15:46:22.093Z,25.48
2023-06-19T15:48:51.861Z,25.45
2023-06-19T15:51:20.523Z,25.94
2023-06-19T15:53:49.221Z,25.93
2023-06-19T15:56:17.944Z,25.89
2023-06-19T15:58:46.529Z,26.07
2023-06-19T16:01:16.737Z,26.20
2023-06-19T16:03:45.406Z,26.34
2023-06-19T16:06:14.061Z,26.41
2023-06-19T16:08:42.823Z,26.43
2023-06-19T16:11:12.744Z,26.62
2023-06-19T16:13:41.256Z,26.60
2023-06-19T16:16:10.099Z,26.71
2023-06-19T16:18:40.152Z,26.60
2023-06-19T16:21:08.985Z,26.78
2023-06-19T16:23:37.772Z,26.75
2023-06-19T16:26:06.358Z,26.83
2023-06-19T16:28:34.922Z,27.01
2023-06-19T16:31:03.846Z,27.04
2023-06-19T16:33:32.591Z,27.03
2023-06-19T16:36:02.736Z,26.86
2023-06-19T16:38:31.405Z,26.71
2023-06-19T16:41:00.347Z,26.66
2023-06-19T16:43:28.877Z,26.66
2023-06-19T16:45:57.526Z,26.39
2023-06-19T16:48:26.215Z,26.47
2023-06-19T16:50:54.728Z,26.47
2023-06-19T16:53:25.040Z,26.65
2023-06-19T16:55:57.167Z,26.46
2023-06-19T16:58:25.828Z,26.41
2023-06-19T17:00:55.215Z,26.21
2023-06-19T17:03:25.134Z,26.17
2023-06-19T17:05:53.772Z,26.03
2023-06-19T17:08:22.507Z,25.79
2023-06-19T17:10:52.525Z,25.71
2023-06-19T17:13:21.520Z,25.63
2023-06-19T17:15:50.164Z,25.44
2023-06-19T17:18:18.870Z,25.28
2023-06-19T17:20:47.489Z,25.05
2023-06-19T17:23:16.182Z,25.01
2023-06-19T17:25:46.870Z,24.86
2023-06-19T17:28:16.973Z,24.84
2023-06-19T17:30:45.681Z,24.77
2023-06-19T17:33:15.378Z,24.83
2023-06-19T17:35:44.110Z,24.46
2023-06-19T17:38:12.852Z,24.30
2023-06-19T17:40:42.157Z,24.42
2023-06-19T17:43:10.932Z,24.44
2023-06-19T17:45:40.917Z,24.05
2023-06-19T17:48:09.550Z,24.22
2023-06-19T17:50:38.137Z,24.22
2023-06-19T17:53:06.767Z,24.23
2023-06-19T17:55:35.298Z,24.25
2023-06-19T17:58:03.906Z,23.96
2023-06-19T18:00:32.496Z,24.13
2023-06-19T18:03:03.457Z,23.95
2023-06-19T18:05:32.202Z,23.79
2023-06-19T18:08:00.781Z,23.83
2023-06-19T18:10:29.514Z,23.47
2023-06-19T18:12:59.295Z,23.65
2023-06-19T18:15:27.932Z,23.66
2023-06-19T18:17:56.492Z,23.38
2023-06-19T18:20:27.204Z,23.27
2023-06-19T18:22:56.270Z,23.13
2023-06-19T18:25:24.757Z,23.14
2023-06-19T18:27:53.428Z,23.14
2023-06-19T18:30:22.248Z,23.05
2023-06-19T18:32:51.187Z,22.88
2023-06-19T18:35:19.744Z,22.89
2023-06-19T18:37:50.286Z,22.86
2023-06-19T18:40:18.987Z,22.83
2023-06-19T18:42:47.512Z,22.85
2023-06-19T18:45:16.394Z,22.50
2023-06-19T18:47:45.110Z,22.34
2023-06-19T18:50:15.471Z,22.56
2023-06-19T18:52:44.140Z,22.50
2023-06-19T18:55:14.403Z,22.39
2023-06-19T18:57:43.049Z,22.17
2023-06-19T19:00:12.631Z,21.78
2023-06-19T19:02:42.165Z,21.83
2023-06-19T19:05:11.309Z,21.78
2023-06-19T19:07:40.108Z,21.39
2023-06-19T19:10:10.924Z,21.45
2023-06-19T19:12:41.049Z,21.47
2023-06-19T19:15:10.508Z,20.94
2023-06-19T19:17:39.513Z,20.70
2023-06-19T19:20:10.682Z,20.93
2023-06-19T19:22:39.242Z,20.79
2023-06-19T19:25:08.653Z,20.81
2023-06-19T19:27:37.265Z,20.85
2023-06-19T19:30:09.056Z,20.89
2023-06-19T19:32:37.685Z,20.60
2023-06-19T19:35:06.952Z,20.30
2023-06-19T19:37:35.648Z,20.60
2023-06-19T19:40:04.830Z,20.33
2023-06-19T19:42:33.545Z,20.28
2023-06-19T19:45:04.638Z,19.74
2023-06-19T19:47:36.758Z,19.76
2023-06-19T19:50:05.936Z,19.65
2023-06-19T19:52:34.572Z,19.43
2023-06-19T19:55:03.139Z,19.38
2023-06-19T19:57:31.827Z,19.18
2023-06-19T20:00:00.376Z,19.27
2023-06-19T20:02:29.112Z,19.23
2023-06-19T20:04:59.120Z,19.16
2023-06-19T20:07:27.806Z,19.13
2023-06-19T20:09:56.441Z,19.17
2023-06-19T20:12:25.049Z,19.43
2023-06-19T20:14:55.223Z,19.61
2023-06-19T20:17:24.613Z,19.55
2023-06-19T20:19:53.431Z,19.52
2023-06-19T20:22:23.630Z,19.57
2023-06-19T20:24:52.188Z,19.49
2023-06-19T20:27:21.038Z,19.44
2023-06-19T20:29:49.959Z,19.40
2023-06-19T20:32:18.718Z,19.47
2023-06-19T20:34:47.335Z,19.35
2023-06-19T20:37:16.073Z,19.23
2023-06-19T20:39:46.150Z,19.33
2023-06-19T20:42:14.686Z,19.31
2023-06-19T20:44:43.391Z,18.86
2023-06-19T20:47:11.989Z,18.54
2023-06-19T20:49:41.870Z,17.99
2023-06-19T20:52:10.586Z,17.64
2023-06-19T20:54:39.129Z,17.34
2023-06-19T20:57:09.485Z,17.34
2023-06-19T20:59:38.202Z,17.30
2023-06-19T21:02:10.318Z,17.41
2023-06-19T21:04:39.086Z,17.55
2023-06-19T21:07:07.747Z,17.68
2023-06-19T21:09:36.390Z,17.84
2023-06-19T21:12:05.106Z,17.91
2023-06-19T21:14:35.451Z,18.05
2023-06-19T21:17:04.425Z,18.13
2023-06-19T21:19:33.023Z,18.21
2023-06-19T21:22:01.762Z,18.20
2023-06-19T21:24:30.422Z,17.93
2023-06-19T21:26:59.142Z,17.96
2023-06-19T21:29:28.424Z,17.99
2023-06-19T21:31:58.540Z,17.90
2023-06-19T21:34:27.125Z,17.92
2023-06-19T21:36:55.904Z,17.80
2023-06-19T21:39:24.548Z,17.65
2023-06-19T21:41:53.239Z,17.49
2023-06-19T21:44:21.835Z,17.54
2023-06-19T21:46:50.801Z,17.54
2023-06-19T21:49:20.774Z,17.39
2023-06-19T21:51:49.651Z,16.98
2023-06-19T21:54:18.210Z,17.03
2023-06-19T21:56:46.805Z,17.12
2023-06-19T21:59:15.405Z,17.12
2023-06-19T22:01:44.033Z,17.15
2023-06-19T22:04:15.987Z,17.17
2023-06-19T22:06:49.043Z,17.06
2023-06-19T22:09:17.696Z,17.01
2023-06-19T22:11:46.234Z,16.46
2023-06-19T22:14:14.828Z,16.16
2023-06-19T22:16:43.325Z,16.28
2023-06-19T22:19:11.841Z,16.33
2023-06-19T22:21:43.004Z,15.68
2023-06-19T22:24:13.304Z,15.32
2023-06-19T22:26:41.853Z,15.18
2023-06-19T22:29:12.978Z,15.15
2023-06-19T22:31:42.869Z,15.08
2023-06-19T22:34:11.461Z,14.97
2023-06-19T22:36:40.339Z,14.79
2023-06-19T22:39:08.910Z,14.66
2023-06-19T22:41:40.071Z,14.70
2023-06-19T22:44:08.996Z,14.75
2023-06-19T22:46:37.506Z,14.72
2023-06-19T22:49:06.348Z,14.73
2023-06-19T22:51:35.585Z,14.64
2023-06-19T22:54:04.061Z,14.63
2023-06-19T22:56:32.603Z,14.53
2023-06-19T22:59:02.703Z,14.32
2023-06-19T23:01:31.825Z,14.19
2023-06-19T23:04:00.528Z,14.20
2023-06-19T23:06:29.064Z,14.13
2023-06-19T23:08:57.696Z,14.01
2023-06-19T23:11:28.434Z,13.95
2023-06-19T23:13:57.044Z,13.97
2023-06-19T23:16:26.918Z,14.06
2023-06-19T23:18:58.716Z,13.96
2023-06-19T23:21:31.630Z,13.94
2023-06-19T23:24:00.692Z,13.85
2023-06-19T23:26:29.331Z,13.78
2023-06-19T23:29:00.279Z,13.70
2023-06-19T23:31:30.440Z,13.63
2023-06-19T23:34:03.883Z,13.66
2023-06-19T23:36:32.491Z,13.71
2023-06-19T23:39:02.327Z,13.72
2023-06-19T23:41:30.889Z,13.61
2023-06-19T23:43:59.435Z,13.62
2023-06-19T23:46:29.649Z,13.50
2023-06-19T23:48:58.281Z,13.33
2023-06-19T23:51:26.825Z,13.24
2023-06-19T23:53:55.439Z,13.19
2023-06-19T23:56:23.968Z,13.08
2023-06-19T23:58:52.551Z,13.17
